Time;durP1;ratioP1;P1;durP2;ratioP2;P2;SDS_P1;SDS_P2;PMS_P1;PMS_P2;Temp;Humidity;BMP_temperature;BMP_pressure;BME280_temperature;BME280_humidity;BME280_pressure;Samples;Min_cycle;Max_cycle;Signal;HPM_P1;HPM_P2
2022/01/26 00:00:58;;;;;;;76.60;26.15;;;;;;;;;;5049351;28;20367;-82
2022/01/26 00:06:16;;;;;;;71.00;25.70;;;;;;;;;;5037337;28;20073;-82
2022/01/26 00:08:42;;;;;;;81.28;27.45;;;;;;;;;;5067914;28;20206;-82
2022/01/26 00:11:08;;;;;;;78.25;27.83;;;;;;;;;;5050031;28;20040;-81
2022/01/26 00:13:34;;;;;;;77.18;26.95;;;;;;;;;;5033248;28;20091;-82
2022/01/26 00:16:03;;;;;;;75.57;26.70;;;;;;;;;;5028034;28;20450;-81
2022/01/26 00:18:32;;;;;;;72.85;25.60;;;;;;;;;;5043678;28;20512;-81
2022/01/26 00:21:07;;;;;;;73.97;24.63;;;;;;;;;;5042638;28;20135;-82
2022/01/26 00:38:55;;;;;;;77.43;25.75;;;;;;;;;;5021125;28;20140;-82
2022/01/26 00:41:34;;;;;;;81.35;26.63;;;;;;;;;;5041320;28;20071;-82
2022/01/26 00:44:01;;;;;;;80.18;25.83;;;;;;;;;;5051776;28;20044;-83
2022/01/26 00:46:27;;;;;;;87.85;27.75;;;;;;;;;;5050923;28;20049;-82
2022/01/26 00:48:53;;;;;;;74.60;25.45;;;;;;;;;;5051244;28;20145;-82
2022/01/26 00:51:21;;;;;;;78.22;25.05;;;;;;;;;;5050318;28;20056;-83
2022/01/26 00:53:54;;;;;;;77.03;26.55;;;;;;;;;;5067755;28;20780;-83
2022/01/26 00:56:21;;;;;;;78.88;26.42;;;;;;;;;;5050584;28;20072;-83
2022/01/26 00:58:47;;;;;;;76.20;24.45;;;;;;;;;;5051663;28;20049;-83
2022/01/26 01:01:13;;;;;;;77.53;26.38;;;;;;;;;;5033165;28;20528;-83
2022/01/26 01:03:43;;;;;;;83.15;25.85;;;;;;;;;;5031745;28;20049;-83
2022/01/26 01:06:28;;;;;;;78.13;27.67;;;;;;;;;;5030800;28;20053;-83
2022/01/26 01:08:57;;;;;;;86.07;28.83;;;;;;;;;;5032078;28;20058;-83
2022/01/26 01:11:23;;;;;;;72.78;25.05;;;;;;;;;;5039376;28;20072;-83
2022/01/26 01:13:49;;;;;;;74.68;25.65;;;;;;;;;;5033833;28;20041;-83
2022/01/26 01:16:19;;;;;;;72.88;25.45;;;;;;;;;;5031298;28;20045;-83
2022/01/26 01:31:40;;;;;;;75.50;26.27;;;;;;;;;;5053305;28;20136;-83
2022/01/26 01:34:06;;;;;;;79.32;26.08;;;;;;;;;;5040849;28;20045;-83
2022/01/26 01:36:33;;;;;;;72.85;26.50;;;;;;;;;;5034151;28;20045;-83
2022/01/26 01:38:59;;;;;;;78.40;26.95;;;;;;;;;;5035087;28;20121;-83
2022/01/26 01:41:25;;;;;;;85.75;27.95;;;;;;;;;;5038460;28;20540;-83
2022/01/26 01:43:51;;;;;;;81.60;29.02;;;;;;;;;;5049234;28;20037;-83
2022/01/26 01:46:17;;;;;;;90.28;27.73;;;;;;;;;;5056271;28;20045;-83
2022/01/26 01:48:43;;;;;;;96.25;30.63;;;;;;;;;;5035180;28;20045;-83
2022/01/26 01:51:12;;;;;;;79.75;29.15;;;;;;;;;;5035282;28;20500;-83
2022/01/26 01:53:41;;;;;;;86.88;29.35;;;;;;;;;;5036681;28;20044;-83
2022/01/26 01:56:09;;;;;;;84.47;26.67;;;;;;;;;;5043972;28;20053;-83
2022/01/26 01:58:36;;;;;;;83.78;28.13;;;;;;;;;;5053377;28;20089;-83
2022/01/26 02:01:02;;;;;;;84.53;28.30;;;;;;;;;;5050689;28;20056;-83
2022/01/26 02:03:28;;;;;;;81.57;29.83;;;;;;;;;;5040986;28;20041;-83
2022/01/26 02:05:54;;;;;;;84.07;27.67;;;;;;;;;;5035117;28;20085;-83
2022/01/26 02:08:20;;;;;;;79.80;29.10;;;;;;;;;;5048920;28;20502;-83
2022/01/26 02:10:47;;;;;;;78.55;26.50;;;;;;;;;;5073683;28;20060;-83
2022/01/26 02:13:27;;;;;;;83.63;28.90;;;;;;;;;;5058586;28;20043;-83
2022/01/26 02:16:07;;;;;;;81.78;28.48;;;;;;;;;;5055408;28;20044;-83
2022/01/26 02:51:31;;;;;;;76.22;26.20;;;;;;;;;;5053386;28;20056;-83
2022/01/26 03:06:44;;;;;;;77.65;25.98;;;;;;;;;;5035698;28;20088;-82
2022/01/26 03:09:14;;;;;;;78.22;26.98;;;;;;;;;;5047250;28;20303;-83
2022/01/26 03:11:43;;;;;;;81.57;27.77;;;;;;;;;;5055050;28;20499;-83
2022/01/26 03:14:31;;;;;;;77.20;26.70;;;;;;;;;;5043491;28;20128;-83
2022/01/26 03:17:00;;;;;;;76.88;26.23;;;;;;;;;;5054878;28;20056;-84
2022/01/26 03:19:41;;;;;;;71.20;25.30;;;;;;;;;;5054951;28;20172;-84
2022/01/26 03:35:17;;;;;;;70.00;24.33;;;;;;;;;;5055528;28;20052;-84
2022/01/26 03:37:52;;;;;;;86.68;26.83;;;;;;;;;;5051695;28;20109;-83
2022/01/26 03:40:19;;;;;;;78.85;26.73;;;;;;;;;;5053778;28;20052;-83
2022/01/26 03:42:45;;;;;;;72.00;26.77;;;;;;;;;;5052666;28;20041;-84
2022/01/26 03:45:11;;;;;;;73.70;25.13;;;;;;;;;;5068205;28;20129;-84
2022/01/26 03:47:37;;;;;;;75.03;27.02;;;;;;;;;;5054546;28;20037;-84
2022/01/26 03:50:04;;;;;;;81.00;27.48;;;;;;;;;;5044965;28;20048;-85
2022/01/26 03:52:30;;;;;;;78.47;27.33;;;;;;;;;;5038618;28;20045;-84
2022/01/26 03:54:56;;;;;;;78.85;26.88;;;;;;;;;;5052626;28;20047;-84
2022/01/26 03:57:22;;;;;;;85.40;27.02;;;;;;;;;;5049452;28;20056;-84
2022/01/26 03:59:48;;;;;;;87.22;28.38;;;;;;;;;;5034060;28;20056;-84
2022/01/26 04:02:14;;;;;;;79.03;26.33;;;;;;;;;;5033961;28;20099;-84
2022/01/26 04:04:47;;;;;;;78.93;27.67;;;;;;;;;;5033929;28;20054;-84
2022/01/26 04:07:13;;;;;;;75.03;26.05;;;;;;;;;;5035161;28;20107;-84
2022/01/26 04:09:39;;;;;;;79.75;26.67;;;;;;;;;;5049496;28;20069;-84
2022/01/26 04:12:05;;;;;;;78.40;26.73;;;;;;;;;;5035594;28;20037;-84
2022/01/26 04:14:32;;;;;;;75.53;26.10;;;;;;;;;;5034593;28;20048;-84
2022/01/26 04:16:58;;;;;;;70.15;25.08;;;;;;;;;;5037242;28;20045;-84
2022/01/26 04:19:27;;;;;;;79.22;26.17;;;;;;;;;;5033764;28;20046;-84
2022/01/26 04:24:40;;;;;;;73.00;23.75;;;;;;;;;;5054097;28;20140;-85
2022/01/26 04:27:17;;;;;;;71.95;26.65;;;;;;;;;;5054645;28;20040;-84
2022/01/26 04:29:43;;;;;;;69.25;24.20;;;;;;;;;;5049044;28;20061;-84
2022/01/26 04:32:12;;;;;;;68.43;24.27;;;;;;;;;;5035508;28;20052;-84
2022/01/26 04:34:38;;;;;;;71.97;24.73;;;;;;;;;;5038380;28;20049;-83
2022/01/26 04:37:15;;;;;;;83.95;27.10;;;;;;;;;;5059474;28;20128;-84
2022/01/26 04:39:51;;;;;;;75.97;24.55;;;;;;;;;;5051078;28;20038;-83
2022/01/26 04:42:26;;;;;;;84.05;28.05;;;;;;;;;;5033792;28;20061;-84
2022/01/26 04:45:02;;;;;;;72.72;25.02;;;;;;;;;;5041708;28;20041;-83
2022/01/26 04:47:28;;;;;;;65.72;23.77;;;;;;;;;;5049024;28;20041;-83
2022/01/26 04:49:54;;;;;;;76.70;25.65;;;;;;;;;;5048683;28;20076;-84
2022/01/26 04:52:20;;;;;;;70.88;24.15;;;;;;;;;;5039721;28;20080;-84
2022/01/26 04:54:46;;;;;;;79.80;25.45;;;;;;;;;;5049332;28;20404;-84
2022/01/26 04:57:12;;;;;;;79.10;27.85;;;;;;;;;;5041724;28;20041;-83
2022/01/26 04:59:38;;;;;;;75.40;26.50;;;;;;;;;;5055657;28;20199;-84
2022/01/26 05:02:04;;;;;;;72.18;24.55;;;;;;;;;;5038010;28;20128;-84
2022/01/26 05:04:30;;;;;;;75.05;25.80;;;;;;;;;;5038423;28;20140;-84
2022/01/26 05:06:56;;;;;;;69.32;25.17;;;;;;;;;;5043283;28;20037;-83
2022/01/26 05:09:23;;;;;;;74.28;24.95;;;;;;;;;;5070594;28;20052;-84
2022/01/26 05:11:52;;;;;;;74.75;25.45;;;;;;;;;;5054737;28;20085;-84
2022/01/26 05:14:18;;;;;;;70.15;24.63;;;;;;;;;;5038199;28;20057;-84
2022/01/26 05:16:44;;;;;;;75.20;24.33;;;;;;;;;;5054512;28;20050;-84
2022/01/26 05:19:10;;;;;;;64.63;21.55;;;;;;;;;;5056045;28;20041;-84
2022/01/26 05:21:36;;;;;;;68.15;22.65;;;;;;;;;;5052374;28;20040;-84
2022/01/26 05:24:03;;;;;;;67.25;22.67;;;;;;;;;;5077515;28;20509;-84
2022/01/26 05:26:29;;;;;;;74.63;26.50;;;;;;;;;;5067331;28;20075;-84
2022/01/26 05:28:55;;;;;;;73.28;24.48;;;;;;;;;;5048478;28;20186;-85
2022/01/26 05:31:21;;;;;;;68.38;22.45;;;;;;;;;;5057294;28;20052;-85
2022/01/26 05:33:48;;;;;;;60.78;22.02;;;;;;;;;;5073605;28;20119;-84
2022/01/26 05:36:14;;;;;;;68.75;25.42;;;;;;;;;;5074453;28;20106;-85
2022/01/26 05:38:40;;;;;;;70.22;23.38;;;;;;;;;;5057123;28;20103;-84
2022/01/26 05:41:08;;;;;;;73.57;22.92;;;;;;;;;;5038121;28;20428;-85
2022/01/26 05:43:34;;;;;;;66.20;23.77;;;;;;;;;;5049489;28;20094;-85
2022/01/26 05:46:08;;;;;;;67.13;23.15;;;;;;;;;;5066646;28;20041;-85
2022/01/26 05:48:38;;;;;;;61.50;21.13;;;;;;;;;;5042802;28;20546;-85
2022/01/26 05:51:06;;;;;;;68.63;25.10;;;;;;;;;;5047290;28;20041;-85
2022/01/26 05:53:33;;;;;;;64.80;23.20;;;;;;;;;;5053561;28;20104;-84
2022/01/26 05:55:59;;;;;;;64.78;22.45;;;;;;;;;;5054739;28;20172;-85
2022/01/26 05:58:25;;;;;;;62.67;21.23;;;;;;;;;;5047831;28;20048;-85
2022/01/26 06:00:51;;;;;;;56.97;21.80;;;;;;;;;;5056157;28;20029;-84
2022/01/26 06:03:17;;;;;;;63.20;20.50;;;;;;;;;;5049337;28;20049;-84
2022/01/26 06:05:43;;;;;;;63.17;22.33;;;;;;;;;;5041930;28;20080;-84
2022/01/26 06:08:09;;;;;;;64.70;22.40;;;;;;;;;;5045214;28;20041;-84
2022/01/26 06:10:35;;;;;;;60.95;20.90;;;;;;;;;;5056353;28;20068;-86
2022/01/26 06:13:04;;;;;;;57.28;21.67;;;;;;;;;;5056045;28;20127;-86
2022/01/26 06:15:30;;;;;;;59.83;22.27;;;;;;;;;;5040137;28;20045;-86
2022/01/26 06:17:59;;;;;;;59.22;21.20;;;;;;;;;;5048722;28;20921;-83
2022/01/26 06:20:25;;;;;;;59.42;20.88;;;;;;;;;;5054547;28;20052;-86
2022/01/26 06:22:51;;;;;;;56.35;19.88;;;;;;;;;;5056194;28;20041;-87
2022/01/26 06:25:17;;;;;;;61.50;21.95;;;;;;;;;;5045425;28;20102;-86
2022/01/26 06:27:44;;;;;;;61.72;20.90;;;;;;;;;;5038274;28;20045;-84
2022/01/26 06:30:11;;;;;;;59.40;21.00;;;;;;;;;;5056649;28;20051;-82
2022/01/26 06:32:38;;;;;;;64.10;21.48;;;;;;;;;;5054550;28;20049;-83
2022/01/26 06:35:05;;;;;;;55.63;20.35;;;;;;;;;;5039823;28;20049;-83
2022/01/26 06:37:31;;;;;;;58.15;20.90;;;;;;;;;;5041194;28;20061;-80
2022/01/26 06:39:57;;;;;;;59.25;21.27;;;;;;;;;;5038851;28;20048;-80
2022/01/26 06:42:28;;;;;;;53.03;19.17;;;;;;;;;;5069423;28;20443;-82
2022/01/26 06:45:08;;;;;;;54.78;20.25;;;;;;;;;;5047312;28;20042;-81
2022/01/26 06:50:23;;;;;;;53.35;18.48;;;;;;;;;;5035664;28;20076;-83
2022/01/26 06:52:49;;;;;;;58.88;20.20;;;;;;;;;;5053406;28;20041;-82
2022/01/26 06:55:17;;;;;;;66.22;20.95;;;;;;;;;;5045741;28;20037;-82
2022/01/26 06:57:43;;;;;;;60.83;22.13;;;;;;;;;;5053790;28;20048;-82
2022/01/26 07:00:10;;;;;;;53.13;19.45;;;;;;;;;;5049951;28;20068;-82
2022/01/26 07:02:39;;;;;;;61.42;21.67;;;;;;;;;;5060339;28;20056;-82
2022/01/26 07:05:14;;;;;;;64.90;21.52;;;;;;;;;;5051306;28;20128;-82
2022/01/26 07:07:41;;;;;;;55.78;21.73;;;;;;;;;;5052609;28;20053;-82
2022/01/26 07:10:08;;;;;;;56.13;21.52;;;;;;;;;;5052249;28;20395;-81
2022/01/26 07:12:34;;;;;;;58.03;23.25;;;;;;;;;;5051524;28;20400;-82
2022/01/26 07:23:05;;;;;;;53.35;20.83;;;;;;;;;;5045348;28;20053;-85
2022/01/26 07:25:31;;;;;;;54.03;19.98;;;;;;;;;;5060544;28;20546;-86
2022/01/26 07:27:58;;;;;;;66.85;21.90;;;;;;;;;;5055459;28;20056;-86
2022/01/26 07:30:24;;;;;;;62.92;22.00;;;;;;;;;;5066736;28;20488;-86
2022/01/26 07:32:50;;;;;;;65.18;22.65;;;;;;;;;;5067770;28;20056;-82
2022/01/26 07:35:16;;;;;;;62.85;22.65;;;;;;;;;;5051685;28;20488;-81
2022/01/26 07:37:44;;;;;;;64.63;22.85;;;;;;;;;;5050466;28;20048;-83
2022/01/26 07:40:10;;;;;;;60.55;23.55;;;;;;;;;;5053551;28;20564;-80
2022/01/26 07:42:37;;;;;;;72.35;24.45;;;;;;;;;;5047863;28;20045;-85
2022/01/26 07:45:05;;;;;;;66.80;24.88;;;;;;;;;;5040653;28;20052;-84
2022/01/26 07:47:31;;;;;;;68.10;24.50;;;;;;;;;;5050287;28;20053;-84
2022/01/26 07:50:01;;;;;;;74.30;25.65;;;;;;;;;;5070889;28;20064;-84
2022/01/26 07:52:30;;;;;;;71.40;27.17;;;;;;;;;;5040891;28;20065;-84
2022/01/26 07:54:56;;;;;;;70.50;26.20;;;;;;;;;;5033392;28;20136;-84
2022/01/26 07:57:23;;;;;;;71.70;26.67;;;;;;;;;;5033464;28;20084;-85
2022/01/26 07:59:49;;;;;;;66.53;27.02;;;;;;;;;;5041782;28;20045;-85
2022/01/26 08:02:15;;;;;;;80.38;26.65;;;;;;;;;;5046083;28;20136;-84
2022/01/26 08:04:41;;;;;;;73.13;27.40;;;;;;;;;;5052972;28;20477;-87
2022/01/26 08:07:07;;;;;;;76.72;27.17;;;;;;;;;;5072567;28;20053;-88
2022/01/26 08:09:34;;;;;;;73.70;28.25;;;;;;;;;;5071264;28;20420;-79
2022/01/26 08:12:00;;;;;;;79.38;27.60;;;;;;;;;;5062392;28;20041;-80
2022/01/26 08:14:26;;;;;;;83.35;29.85;;;;;;;;;;5033848;28;20048;-80
2022/01/26 08:16:52;;;;;;;77.80;28.42;;;;;;;;;;5050230;28;20044;-80
2022/01/26 08:19:19;;;;;;;78.88;29.75;;;;;;;;;;5052186;28;20484;-84
2022/01/26 08:21:45;;;;;;;78.97;29.67;;;;;;;;;;5052105;28;20041;-77
2022/01/26 08:24:15;;;;;;;76.95;28.48;;;;;;;;;;5050081;28;20522;-75
2022/01/26 08:26:46;;;;;;;82.05;28.42;;;;;;;;;;5042644;28;20052;-79
2022/01/26 08:29:17;;;;;;;83.88;32.45;;;;;;;;;;5050081;28;20040;-79
2022/01/26 08:31:44;;;;;;;77.18;27.70;;;;;;;;;;5043474;28;20447;-82
2022/01/26 08:34:10;;;;;;;87.32;31.40;;;;;;;;;;5048307;28;20068;-80
2022/01/26 08:36:36;;;;;;;72.20;27.73;;;;;;;;;;5052129;28;20049;-80
2022/01/26 08:39:03;;;;;;;90.07;31.95;;;;;;;;;;5049939;28;20034;-80
2022/01/26 08:41:29;;;;;;;88.93;32.33;;;;;;;;;;5045513;28;20095;-81
2022/01/26 08:43:55;;;;;;;87.78;32.17;;;;;;;;;;5048544;28;20050;-80
2022/01/26 08:46:22;;;;;;;92.30;31.23;;;;;;;;;;5049777;28;20431;-79
2022/01/26 08:48:48;;;;;;;92.25;34.00;;;;;;;;;;5051032;28;20103;-79
2022/01/26 08:51:15;;;;;;;92.60;31.55;;;;;;;;;;5049181;28;20055;-80
2022/01/26 08:53:41;;;;;;;87.50;31.27;;;;;;;;;;5066510;28;20426;-80
2022/01/26 08:56:07;;;;;;;104.45;35.78;;;;;;;;;;5052881;28;20046;-80
2022/01/26 08:58:33;;;;;;;97.97;35.15;;;;;;;;;;5046617;28;20099;-80
2022/01/26 09:01:00;;;;;;;101.10;34.72;;;;;;;;;;5049292;28;20140;-80
2022/01/26 09:03:26;;;;;;;97.18;34.95;;;;;;;;;;5038489;28;20540;-80
2022/01/26 09:05:52;;;;;;;101.68;35.65;;;;;;;;;;5030731;28;20136;-80
2022/01/26 09:08:19;;;;;;;102.47;35.92;;;;;;;;;;5030099;28;20042;-80
2022/01/26 09:10:45;;;;;;;97.63;34.38;;;;;;;;;;5047447;28;20491;-80
2022/01/26 09:13:11;;;;;;;102.78;37.65;;;;;;;;;;5040137;28;20415;-80
2022/01/26 09:15:40;;;;;;;94.90;35.65;;;;;;;;;;5047967;28;20091;-80
2022/01/26 09:18:07;;;;;;;96.85;36.10;;;;;;;;;;5049644;28;20512;-79
2022/01/26 09:20:36;;;;;;;104.75;37.28;;;;;;;;;;5050943;28;20058;-79
2022/01/26 09:23:03;;;;;;;101.50;39.10;;;;;;;;;;5056044;28;20042;-80
2022/01/26 09:25:29;;;;;;;101.07;36.83;;;;;;;;;;5035209;28;20037;-80
2022/01/26 09:27:56;;;;;;;105.72;36.95;;;;;;;;;;5056870;28;20357;-79
2022/01/26 09:30:23;;;;;;;101.90;37.92;;;;;;;;;;5049276;28;20463;-79
2022/01/26 09:32:49;;;;;;;97.60;35.80;;;;;;;;;;5033868;28;20060;-80
2022/01/26 09:35:15;;;;;;;98.43;35.85;;;;;;;;;;5033054;28;20045;-81
2022/01/26 09:37:41;;;;;;;96.45;35.90;;;;;;;;;;5046573;28;20115;-81
2022/01/26 09:40:08;;;;;;;99.00;34.95;;;;;;;;;;5043813;28;20053;-80
2022/01/26 09:42:36;;;;;;;88.05;30.95;;;;;;;;;;5050263;28;20052;-80
2022/01/26 09:45:03;;;;;;;97.70;37.05;;;;;;;;;;5049943;28;20041;-79
2022/01/26 09:47:32;;;;;;;101.03;36.50;;;;;;;;;;5050176;28;20128;-79
2022/01/26 09:49:58;;;;;;;99.65;35.53;;;;;;;;;;5043851;28;20042;-78
2022/01/26 09:52:37;;;;;;;93.55;34.65;;;;;;;;;;5046720;28;20053;-79
2022/01/26 09:55:05;;;;;;;99.85;35.67;;;;;;;;;;5036837;28;20120;-81
2022/01/26 09:57:31;;;;;;;90.72;33.95;;;;;;;;;;5056252;28;20053;-78
2022/01/26 09:59:58;;;;;;;88.22;33.95;;;;;;;;;;5042342;28;20427;-80
2022/01/26 10:02:31;;;;;;;87.18;33.72;;;;;;;;;;5055318;28;20099;-80
2022/01/26 10:05:04;;;;;;;94.40;34.37;;;;;;;;;;5080965;28;20078;-81
2022/01/26 10:07:46;;;;;;;89.43;33.35;;;;;;;;;;5033751;28;20284;-81
2022/01/26 10:15:34;;;;;;;89.65;35.03;;;;;;;;;;5044533;28;20075;-81
2022/01/26 10:18:07;;;;;;;87.97;34.55;;;;;;;;;;5050395;28;20049;-81
2022/01/26 10:20:48;;;;;;;93.95;33.47;;;;;;;;;;5051875;28;20055;-80
2022/01/26 10:23:40;;;;;;;85.97;33.65;;;;;;;;;;5040244;28;20045;-81
2022/01/26 10:26:13;;;;;;;91.95;34.95;;;;;;;;;;5051119;28;20132;-81
2022/01/26 10:28:47;;;;;;;92.85;35.72;;;;;;;;;;5053415;28;20107;-81
2022/01/26 10:31:19;;;;;;;99.07;35.08;;;;;;;;;;5064917;28;20127;-81
2022/01/26 10:33:54;;;;;;;87.10;34.17;;;;;;;;;;5035956;28;20055;-80
2022/01/26 10:36:20;;;;;;;84.38;33.13;;;;;;;;;;5076646;28;20480;-81
2022/01/26 10:38:56;;;;;;;90.28;33.55;;;;;;;;;;5060154;28;20107;-80
2022/01/26 10:41:22;;;;;;;86.63;34.63;;;;;;;;;;5049287;28;20049;-80
2022/01/26 10:43:50;;;;;;;93.32;36.00;;;;;;;;;;5053218;28;20048;-74
2022/01/26 10:46:27;;;;;;;91.82;36.22;;;;;;;;;;5042557;28;20842;-74
2022/01/26 10:49:09;;;;;;;97.47;35.50;;;;;;;;;;5035258;28;20044;-74
2022/01/26 10:54:19;;;;;;;91.28;37.55;;;;;;;;;;5038690;28;20037;-74
2022/01/26 10:56:45;;;;;;;90.93;35.13;;;;;;;;;;5040257;28;20071;-77
2022/01/26 10:59:11;;;;;;;90.05;34.53;;;;;;;;;;5049889;28;20077;-75
2022/01/26 11:01:37;;;;;;;87.10;33.05;;;;;;;;;;5048501;28;20048;-75
2022/01/26 11:04:04;;;;;;;85.80;33.28;;;;;;;;;;5069130;28;20136;-75
2022/01/26 11:06:30;;;;;;;78.57;31.17;;;;;;;;;;5051986;28;20084;-75
2022/01/26 11:09:07;;;;;;;83.85;33.28;;;;;;;;;;5068352;28;20764;-75
2022/01/26 11:11:35;;;;;;;86.75;31.15;;;;;;;;;;5069031;28;20066;-75
2022/01/26 11:14:11;;;;;;;84.18;31.00;;;;;;;;;;5068641;28;20442;-75
2022/01/26 11:16:47;;;;;;;86.82;32.75;;;;;;;;;;5051917;28;20053;-75
2022/01/26 11:19:14;;;;;;;78.07;31.33;;;;;;;;;;5033440;28;20127;-71
2022/01/26 11:21:40;;;;;;;83.38;31.92;;;;;;;;;;5046398;28;20065;-71
2022/01/26 11:24:11;;;;;;;87.78;31.10;;;;;;;;;;5047960;28;20136;-71
2022/01/26 11:26:38;;;;;;;85.40;29.92;;;;;;;;;;5042443;28;20053;-71
2022/01/26 11:29:35;;;;;;;78.38;30.58;;;;;;;;;;5044226;28;20064;-71
2022/01/26 11:32:12;;;;;;;80.90;31.20;;;;;;;;;;5036120;28;20061;-71
2022/01/26 11:34:38;;;;;;;85.35;31.83;;;;;;;;;;5047813;28;20049;-71
2022/01/26 11:37:08;;;;;;;80.68;29.33;;;;;;;;;;5047881;28;20053;-71
2022/01/26 11:45:17;;;;;;;76.55;29.52;;;;;;;;;;5031923;28;20053;-71
2022/01/26 11:47:45;;;;;;;76.90;30.05;;;;;;;;;;5042645;28;20053;-71
2022/01/26 11:50:15;;;;;;;91.55;33.28;;;;;;;;;;5036595;28;20041;-71
2022/01/26 11:52:45;;;;;;;80.55;31.63;;;;;;;;;;5031362;28;20045;-71
2022/01/26 11:55:26;;;;;;;84.07;33.03;;;;;;;;;;5033963;28;20061;-71
2022/01/26 11:57:54;;;;;;;95.90;33.55;;;;;;;;;;5043300;28;20060;-71
2022/01/26 12:00:53;;;;;;;81.63;30.48;;;;;;;;;;5030714;28;20493;-71
2022/01/26 12:03:20;;;;;;;93.90;32.47;;;;;;;;;;5043951;28;20099;-71
2022/01/26 12:05:47;;;;;;;87.05;32.78;;;;;;;;;;5052586;28;20099;-71
2022/01/26 12:08:13;;;;;;;89.50;33.35;;;;;;;;;;5054853;28;20061;-71
2022/01/26 12:10:40;;;;;;;87.25;31.90;;;;;;;;;;5031166;28;20092;-71
2022/01/26 12:13:08;;;;;;;94.78;32.42;;;;;;;;;;5036478;28;20570;-71
2022/01/26 12:15:49;;;;;;;86.72;31.73;;;;;;;;;;5047875;28;20048;-70
2022/01/26 12:18:27;;;;;;;91.25;32.03;;;;;;;;;;5051808;28;20071;-71
2022/01/26 12:32:27;;;;;;;86.80;31.45;;;;;;;;;;5038847;28;20056;-70
2022/01/26 12:35:07;;;;;;;76.30;28.40;;;;;;;;;;5050446;28;20074;-70
2022/01/26 12:37:49;;;;;;;87.75;30.83;;;;;;;;;;5032545;28;20053;-69
2022/01/26 12:43:06;;;;;;;70.43;27.50;;;;;;;;;;5032170;28;20057;-69
2022/01/26 12:45:32;;;;;;;83.35;30.15;;;;;;;;;;5053796;28;20091;-69
2022/01/26 12:47:59;;;;;;;76.05;28.92;;;;;;;;;;5045544;28;20493;-69
2022/01/26 12:50:25;;;;;;;75.22;28.63;;;;;;;;;;5048812;28;20049;-69
2022/01/26 12:52:53;;;;;;;81.20;28.50;;;;;;;;;;5035098;28;20057;-70
2022/01/26 12:55:20;;;;;;;82.68;29.55;;;;;;;;;;5048370;28;20045;-75
2022/01/26 12:57:46;;;;;;;82.15;29.60;;;;;;;;;;5046363;28;20045;-74
2022/01/26 13:00:12;;;;;;;72.95;28.08;;;;;;;;;;5043893;28;20045;-75
2022/01/26 13:02:38;;;;;;;74.22;26.17;;;;;;;;;;5052013;28;20064;-75
2022/01/26 13:05:05;;;;;;;80.05;28.05;;;;;;;;;;5031381;28;20045;-75
2022/01/26 13:07:31;;;;;;;77.72;28.35;;;;;;;;;;5046633;28;20041;-75
2022/01/26 13:09:57;;;;;;;80.25;28.40;;;;;;;;;;5047186;28;20053;-75
2022/01/26 13:12:30;;;;;;;76.97;26.88;;;;;;;;;;5032083;28;20041;-74
2022/01/26 13:15:14;;;;;;;69.45;26.85;;;;;;;;;;5051396;28;20048;-75
2022/01/26 13:17:46;;;;;;;75.72;30.65;;;;;;;;;;5050331;28;20060;-75
2022/01/26 13:25:46;;;;;;;71.13;26.77;;;;;;;;;;5053757;28;20057;-77
2022/01/26 13:28:25;;;;;;;74.55;28.45;;;;;;;;;;5051413;28;20175;-76
2022/01/26 13:34:19;;;;;;;72.03;28.50;;;;;;;;;;5050627;28;20053;-78
2022/01/26 13:42:34;;;;;;;69.72;26.73;;;;;;;;;;5034148;28;20136;-77
2022/01/26 13:47:40;;;;;;;70.85;26.85;;;;;;;;;;5049590;28;20064;-74
2022/01/26 13:52:50;;;;;;;71.63;27.23;;;;;;;;;;5049912;28;20080;-73
2022/01/26 13:58:04;;;;;;;70.90;26.67;;;;;;;;;;5038992;28;20076;-73
2022/01/26 14:00:36;;;;;;;62.83;24.73;;;;;;;;;;5055083;28;20115;-74
2022/01/26 14:03:05;;;;;;;76.80;27.40;;;;;;;;;;5040549;28;20053;-74
2022/01/26 14:05:31;;;;;;;66.20;24.55;;;;;;;;;;5033310;28;20061;-72
2022/01/26 14:07:57;;;;;;;62.08;25.63;;;;;;;;;;5049600;28;20041;-72
2022/01/26 14:10:24;;;;;;;65.70;24.73;;;;;;;;;;5050099;28;20045;-72
2022/01/26 14:12:50;;;;;;;59.50;23.85;;;;;;;;;;5041627;28;20149;-72
2022/01/26 14:15:35;;;;;;;67.65;25.45;;;;;;;;;;5037755;28;20045;-72
2022/01/26 14:18:08;;;;;;;63.17;24.42;;;;;;;;;;5045681;28;20100;-72
2022/01/26 14:20:49;;;;;;;62.05;25.45;;;;;;;;;;5043446;28;20049;-72
2022/01/26 14:23:29;;;;;;;60.90;22.23;;;;;;;;;;5045716;28;20484;-72
2022/01/26 14:25:57;;;;;;;66.72;25.23;;;;;;;;;;5032754;28;20046;-73
2022/01/26 14:28:30;;;;;;;65.05;23.77;;;;;;;;;;5037268;28;20077;-72
2022/01/26 14:31:21;;;;;;;61.15;23.08;;;;;;;;;;5049845;28;20124;-72
2022/01/26 14:34:20;;;;;;;60.00;23.63;;;;;;;;;;5055592;28;20103;-72
2022/01/26 14:39:25;;;;;;;60.53;22.83;;;;;;;;;;5040488;28;20057;-72
2022/01/26 15:00:06;;;;;;;;;;;;;;;;;;5036570;28;20071;-71
2022/01/26 15:29:59;;;;;;;69.72;27.40;;;;;;;;;;5050110;28;20392;-70
2022/01/26 15:33:33;;;;;;;67.53;26.98;;;;;;;;;;5051688;28;20372;-70
2022/01/26 15:41:49;;;;;;;66.95;25.52;;;;;;;;;;5048527;28;20052;-70
2022/01/26 16:12:42;;;;;;;59.40;22.95;;;;;;;;;;5043141;28;20085;-73
2022/01/26 16:17:15;;;;;;;;;;;;;;;;;;5048813;28;20056;-74
2022/01/26 16:20:39;;;;;;;60.53;23.88;;;;;;;;;;5060849;28;19928;-74
2022/01/26 16:35:14;;;;;;;;;;;;;;;;;;5053636;28;20481;-73
2022/01/26 16:52:25;;;;;;;;;;;;;;;;;;5052541;28;20456;-74
2022/01/26 18:17:50;;;;;;;57.20;23.88;;;;;;;;;;5051720;28;20045;-71
2022/01/26 18:51:41;;;;;;;;;;;;;;;;;;5039349;28;20128;-71
2022/01/26 18:54:08;;;;;;;57.22;21.77;;;;;;;;;;5048423;28;20320;-71
2022/01/26 18:56:39;;;;;;;43.20;19.65;;;;;;;;;;5035812;28;20049;-72
2022/01/26 18:59:05;;;;;;;50.25;21.73;;;;;;;;;;5045210;28;20041;-71
2022/01/26 19:01:32;;;;;;;51.40;22.58;;;;;;;;;;5042484;28;20040;-72
2022/01/26 19:03:58;;;;;;;51.42;22.05;;;;;;;;;;5039265;28;20484;-72
2022/01/26 19:06:24;;;;;;;49.13;21.20;;;;;;;;;;5034830;28;20104;-72
2022/01/26 19:08:50;;;;;;;47.70;21.38;;;;;;;;;;5040391;28;20058;-71
2022/01/26 19:11:20;;;;;;;41.63;19.70;;;;;;;;;;5049026;28;20479;-72
2022/01/26 19:13:47;;;;;;;41.45;19.00;;;;;;;;;;5034648;28;20041;-71
2022/01/26 19:26:53;;;;;;;42.78;19.25;;;;;;;;;;5041127;28;20049;-71
2022/01/26 19:29:34;;;;;;;47.47;20.90;;;;;;;;;;5029567;28;20053;-71
2022/01/26 19:43:35;;;;;;;39.55;17.55;;;;;;;;;;5034647;28;19921;-71
2022/01/26 19:46:16;;;;;;;46.72;18.48;;;;;;;;;;5047806;28;20137;-72
2022/01/26 19:51:28;;;;;;;39.72;16.77;;;;;;;;;;5030689;28;20065;-72
2022/01/26 19:53:54;;;;;;;45.88;17.63;;;;;;;;;;5052480;28;20132;-71
2022/01/26 19:56:20;;;;;;;38.95;18.05;;;;;;;;;;5033438;28;20125;-71
2022/01/26 19:58:46;;;;;;;40.22;16.45;;;;;;;;;;5039816;28;20049;-72
2022/01/26 20:01:12;;;;;;;42.90;17.70;;;;;;;;;;5055591;28;20045;-72
2022/01/26 20:03:38;;;;;;;44.15;17.70;;;;;;;;;;5047204;28;20037;-72
2022/01/26 20:06:07;;;;;;;41.15;18.38;;;;;;;;;;5031640;28;20045;-72
2022/01/26 20:08:39;;;;;;;35.10;16.17;;;;;;;;;;5032494;28;20062;-71
2022/01/26 20:11:14;;;;;;;47.40;18.95;;;;;;;;;;5040132;28;20045;-72
2022/01/26 20:13:42;;;;;;;40.15;15.98;;;;;;;;;;5039114;28;20076;-71
2022/01/26 20:16:12;;;;;;;42.72;17.67;;;;;;;;;;5031713;28;20111;-71
2022/01/26 20:18:38;;;;;;;47.03;19.02;;;;;;;;;;5040031;28;20053;-71
2022/01/26 20:21:05;;;;;;;43.90;20.10;;;;;;;;;;5036477;28;20052;-71
2022/01/26 20:23:35;;;;;;;43.72;18.17;;;;;;;;;;5038452;28;20045;-72
2022/01/26 20:26:03;;;;;;;44.35;18.63;;;;;;;;;;5032516;28;20100;-71
2022/01/26 20:28:31;;;;;;;40.28;18.27;;;;;;;;;;5030674;28;20083;-71
2022/01/26 20:30:59;;;;;;;45.42;19.35;;;;;;;;;;5040183;28;20052;-71
2022/01/26 20:33:25;;;;;;;40.30;18.80;;;;;;;;;;5039595;28;20056;-71
2022/01/26 20:35:51;;;;;;;45.03;20.38;;;;;;;;;;5039261;28;20037;-71
2022/01/26 20:38:17;;;;;;;45.15;21.20;;;;;;;;;;5038959;28;20510;-71
2022/01/26 20:40:43;;;;;;;46.42;19.70;;;;;;;;;;5040140;28;20175;-71
2022/01/26 20:43:10;;;;;;;41.90;19.75;;;;;;;;;;5042616;28;20132;-71
2022/01/26 20:45:36;;;;;;;47.30;22.38;;;;;;;;;;5037905;28;20050;-72
2022/01/26 20:48:02;;;;;;;42.25;18.83;;;;;;;;;;5051086;28;20048;-72
2022/01/26 20:50:31;;;;;;;51.45;22.98;;;;;;;;;;5034499;28;20037;-71
2022/01/26 20:52:57;;;;;;;53.72;22.33;;;;;;;;;;5036694;28;20045;-72
2022/01/26 20:55:23;;;;;;;46.10;21.55;;;;;;;;;;5040293;28;20037;-71
2022/01/26 20:57:49;;;;;;;45.97;22.73;;;;;;;;;;5029755;28;20107;-72
2022/01/26 21:00:16;;;;;;;43.00;21.05;;;;;;;;;;5047163;28;20502;-72
2022/01/26 21:02:48;;;;;;;48.83;20.20;;;;;;;;;;5050690;28;20099;-72
2022/01/26 21:05:15;;;;;;;46.38;22.10;;;;;;;;;;5047848;28;20052;-72
2022/01/26 21:07:41;;;;;;;55.08;21.30;;;;;;;;;;5034403;28;20048;-72
2022/01/26 21:10:09;;;;;;;44.72;21.38;;;;;;;;;;5044544;28;20534;-72
2022/01/26 21:12:35;;;;;;;52.97;23.13;;;;;;;;;;5033634;28;20088;-72
2022/01/26 21:15:02;;;;;;;49.28;22.50;;;;;;;;;;5035944;28;20056;-72